Flight Track Log - Related Links

Times and Time Zones

All times are in EDT time to prevent confusion due to time zone crossing. See the UAL994 flight status page for this flight to view local times or setup timezone preferences in your user account.


Time Position Orientation Groundspeed Altitude Reporting Facility
EDT Latitude Longitude Course Direction KTS MPH feet Rate Location/Type
Sun 02:01:21 PM 39.8833 -104.6000 72° East 196 226 6,600  Level Denver TRACON
Sun 02:02:21 PM 39.8833 -104.5167 90° East 251 289 8,500 1,952 Climbing Denver TRACON
Sun 02:03:27 PM 39.8833 -104.4000 90° East 295 339 10,700 1,698 Climbing Denver TRACON
Sun 02:04:00 PM 39.8667 -104.0545 90° East  Level FlightAware Approximate
Sun 02:04:07 PM 39.8772 -104.3133 95° East 344 396 11,500  Level Denver Center
Sun 02:05:00 PM 39.8667 -103.9011 90° East  Level FlightAware Approximate
Sun 02:05:09 PM 39.8789 -104.1728 89° East 394 453 15,200  Level Denver Center
Sun 02:06:00 PM 39.8791 -103.7503 72° East  Level FlightAware Approximate
Sun 02:06:11 PM 39.8806 -104.0181 89° East 398 458 18,100  Level Denver Center
Sun 02:07:13 PM 39.8822 -103.8678 89° East 416 479 21,200 2,565 Climbing Denver Center
Sun 02:08:15 PM 39.8850 -103.7244 89° East 416 479 23,400 2,177 Climbing Denver Center
Sun 02:09:17 PM 39.9025 -103.5597 82° East 410 472 25,700 1,854 Climbing Denver Center
Sun 02:10:18 PM 39.9211 -103.4019 81° East 426 490 27,200 1,463 Climbing Denver Center
Sun 02:11:20 PM 39.9378 -103.2525 82° East 433 498 28,700 1,588 Climbing Denver Center
Sun 02:12:34 PM 39.9578 -103.0792 81° East 434 499 30,800 1,721 Climbing Denver Center
Sun 02:13:36 PM 39.9778 -102.8831 82° East 428 493 32,600 1,597 Climbing Denver Center
Sun 02:14:38 PM 39.9942 -102.7411 81° East 420 483 34,100 1,366 Climbing Denver Center
Sun 02:15:39 PM 40.0089 -102.6022 82° East 408 470 35,400 1,122 Climbing Denver Center
Sun 02:16:41 PM 40.0269 -102.4386 82° East 408 470 36,400 706 Climbing Denver Center
Sun 02:17:55 PM 40.0408 -102.3003 82° East 405 466 37,000 265 Climbing Denver Center
Sun 02:18:57 PM 40.0603 -102.1150 82° East 403 464 37,000  Level Denver Center
Sun 02:19:59 PM 40.0753 -101.9528 83° East 405 466 37,000  Level Denver Center
Sun 02:21:00 PM 40.0897 -101.8142 82° East 404 465 37,000  Level Denver Center
Sun 02:22:02 PM 40.1031 -101.6756 83° East 402 463 37,000  Level Denver Center
Sun 02:23:16 PM 40.1186 -101.5158 83° East 400 460 37,000  Level Denver Center
Sun 02:24:18 PM 40.1358 -101.3325 83° East 400 460 37,000  Level Denver Center
Sun 02:25:19 PM 40.1464 -101.2167 83° East 402 463 37,000  Level Denver Center
Sun 02:26:33 PM 40.1639 -101.0344 83° East 398 458 37,000  Level Denver Center
Sun 02:27:36 PM 40.1789 -100.8750 83° East 397 457 37,000  Level Denver Center
Sun 02:28:37 PM 40.1925 -100.7144 84° East 399 459 37,000  Level Denver Center
Sun 02:29:39 PM 40.2067 -100.5786 82° East 397 457 37,000  Level Denver Center
Sun 02:30:41 PM 40.2378 -100.4275 75° East 389 448 37,000  Level Denver Center
Sun 02:31:43 PM 40.2661 -100.2986 74° East 386 444 37,000  Level Denver Center
Sun 02:32:44 PM 40.2975 -100.1450 75° East 391 450 37,000  Level Denver Center
Sun 02:33:46 PM 40.3236 -100.0150 75° East 389 448 37,000  Level Denver Center
Sun 02:34:48 PM 40.3558 -99.8633 74° East 387 445 37,000  Level Denver Center
Sun 02:35:50 PM 40.3797 -99.7439 75° East 391 450 37,000  Level Denver Center
Sun 02:36:51 PM 40.4122 -99.5794 75° East 391 450 37,000  Level Denver Center
Sun 02:37:53 PM 40.4397 -99.4428 75° East 390 449 37,000  Level Denver Center
Sun 02:38:55 PM 40.4678 -99.3069 75° East 388 447 37,000  Level Denver Center
Sun 02:39:56 PM 40.4942 -99.1697 76° East 388 447 37,000  Level Denver Center
Sun 02:40:27 PM 40.5047 -99.1164 75° East 388 447 37,000  Level Minneapolis Center
Sun 02:41:29 PM 40.5381 -98.9517 75° East 389 448 37,000  Level Minneapolis Center
Sun 02:42:31 PM 40.5653 -98.8142 75° East 390 449 37,000  Level Minneapolis Center
Sun 02:43:33 PM 40.5911 -98.6756 76° East 392 451 37,000  Level Minneapolis Center
Sun 02:44:35 PM 40.6181 -98.5372 76° East 393 452 37,000  Level Minneapolis Center
Sun 02:45:37 PM 40.6436 -98.3964 77° East 396 456 37,000  Level Minneapolis Center
Sun 02:46:38 PM 40.6767 -98.2275 75° East 398 458 37,000  Level Minneapolis Center
Sun 02:47:40 PM 40.7033 -98.0850 76° East 401 461 37,000  Level Minneapolis Center
Sun 02:48:42 PM 40.7303 -97.9411 76° East 404 465 37,000  Level Minneapolis Center
Sun 02:49:44 PM 40.7511 -97.8264 76° East 404 465 37,000  Level Minneapolis Center
Sun 02:50:46 PM 40.7825 -97.6517 77° East 407 468 37,000  Level Minneapolis Center
Sun 02:51:48 PM 40.8089 -97.5056 77° East 410 472 37,000  Level Minneapolis Center
Sun 02:52:50 PM 40.8400 -97.3358 76° East 412 474 37,000  Level Minneapolis Center
Sun 02:53:52 PM 40.8669 -97.1875 76° East 414 476 37,000  Level Minneapolis Center
Sun 02:54:53 PM 40.8928 -97.0389 77° East 416 479 37,000  Level Minneapolis Center
Sun 02:55:55 PM 40.9186 -96.8897 77° East 417 480 37,000  Level Minneapolis Center
Sun 02:56:57 PM 40.9456 -96.7414 76° East 417 480 37,000  Level Minneapolis Center
Sun 02:57:59 PM 40.9717 -96.5917 77° East 418 481 37,000  Level Minneapolis Center
Sun 02:59:01 PM 41.0019 -96.4125 77° East 417 480 37,000  Level Minneapolis Center
Sun 03:00:03 PM 41.0275 -96.2633 77° East 419 482 37,000  Level Minneapolis Center
Sun 03:01:04 PM 41.0489 -96.1103 79° East 424 488 37,000  Level Minneapolis Center
Sun 03:02:06 PM 41.0664 -95.9556 81° East 429 494 37,000  Level Minneapolis Center
Sun 03:03:08 PM 41.0869 -95.8006 80° East 431 496 37,000  Level Minneapolis Center
Sun 03:04:09 PM 41.1075 -95.6433 80° East 435 501 37,000  Level Minneapolis Center
Sun 03:05:12 PM 41.1328 -95.4525 80° East 440 506 37,000  Level Minneapolis Center
Sun 03:06:13 PM 41.1522 -95.2919 81° East 443 510 37,000  Level Minneapolis Center
Sun 03:07:15 PM 41.1722 -95.1294 81° East 447 514 37,000  Level Minneapolis Center
Sun 03:08:17 PM 41.1917 -94.9664 81° East 447 514 37,000  Level Minneapolis Center
Sun 03:09:18 PM 41.2106 -94.8033 81° East 448 516 37,000  Level Minneapolis Center
Sun 03:10:20 PM 41.2300 -94.6386 81° East 451 519 37,000  Level Minneapolis Center
Sun 03:11:22 PM 41.2528 -94.4386 81° East 455 524 37,000  Level Minneapolis Center
Sun 03:12:23 PM 41.2739 -94.2719 80° East 458 527 37,000  Level Minneapolis Center
Sun 03:13:25 PM 41.2897 -94.1281 82° East 460 529 37,000  Level Minneapolis Center
Sun 03:14:27 PM 41.3128 -93.9250 81° East 465 535 37,000  Level Minneapolis Center
Sun 03:15:28 PM 41.3319 -93.7564 81° East 464 534 37,000  Level Minneapolis Center
Sun 03:16:29 PM 41.3467 -93.6208 82° East 465 535 37,000  Level Minneapolis Center
Sun 03:17:31 PM 41.3706 -93.4133 81° East 472 543 37,000  Level Minneapolis Center
Sun 03:18:34 PM 41.3883 -93.2436 82° East 470 541 37,000  Level Minneapolis Center
Sun 03:19:36 PM 41.4064 -93.0717 82° East 469 540 37,000  Level Minneapolis Center
Sun 03:20:37 PM 41.4283 -92.8647 82° East 471 542 37,000  Level Minneapolis Center
Sun 03:21:39 PM 41.4467 -92.6883 82° East 477 549 37,000  Level Minneapolis Center
Sun 03:22:15 PM 41.4561 -92.5792 83° East 483 556 37,000  Level Chicago Center
Sun 03:23:17 PM 41.4733 -92.4019 83° East 485 558 37,000  Level Chicago Center
Sun 03:24:19 PM 41.4919 -92.2242 82° East 485 558 37,000  Level Chicago Center
Sun 03:25:20 PM 41.5092 -92.0503 82° East 483 556 37,000  Level Chicago Center
Sun 03:26:22 PM 41.5253 -91.8753 83° East 482 555 37,000  Level Chicago Center
Sun 03:27:24 PM 41.5456 -91.6614 83° East 487 560 37,000  Level Chicago Center
Sun 03:28:26 PM 41.5611 -91.4833 83° East 490 564 37,000  Level Chicago Center
Sun 03:29:28 PM 41.5758 -91.3075 84° East 485 558 37,000  Level Chicago Center
Sun 03:30:29 PM 41.5917 -91.1281 83° East 490 564 37,000  Level Chicago Center
Sun 03:31:31 PM 41.6072 -90.9497 83° East 489 563 37,000  Level Chicago Center
Sun 03:32:33 PM 41.6256 -90.7358 83° East 489 563 37,000  Level Chicago Center
Sun 03:33:35 PM 41.6383 -90.5725 84° East 486 559 37,000  Level Chicago Center
Sun 03:34:37 PM 41.6531 -90.3919 84° East 487 560 37,000  Level Chicago Center
Sun 03:35:38 PM 41.6683 -90.2114 83° East 487 560 37,000  Level Chicago Center
Sun 03:36:40 PM 41.6853 -89.9931 84° East 490 564 37,000  Level Chicago Center
Sun 03:37:42 PM 41.6997 -89.8094 84° East 493 567 37,000  Level Chicago Center
Sun 03:38:44 PM 41.7125 -89.6264 85° East 493 567 37,000  Level Chicago Center
Sun 03:39:46 PM 41.7242 -89.4575 85° East 493 567 37,000  Level Chicago Center
Sun 03:40:48 PM 41.7411 -89.2389 84° East 491 565 37,000  Level Chicago Center
Sun 03:41:49 PM 41.7522 -89.0553 85° East 495 570 37,000  Level Chicago Center
Sun 03:42:51 PM 41.7647 -88.8703 85° East 499 574 37,000  Level Chicago Center
Sun 03:43:53 PM 41.7772 -88.6856 85° East 499 574 37,000  Level Chicago Center
Sun 03:44:55 PM 41.7886 -88.4997 85° East 502 578 37,000  Level Chicago Center
Sun 03:45:57 PM 41.8011 -88.3139 85° East 498 573 37,000  Level Chicago Center
Sun 03:46:59 PM 41.8133 -88.1247 85° East 504 580 37,000  Level Chicago Center
Sun 03:48:01 PM 41.8264 -87.8983 85° East 507 583 37,000  Level Chicago Center
Sun 03:49:03 PM 41.8375 -87.7094 85° East 508 585 37,000  Level Chicago Center
Sun 03:50:05 PM 41.8483 -87.5208 86° East 509 586 37,000  Level Chicago Center
Sun 03:51:07 PM 41.8589 -87.3322 86° East 509 586 37,000  Level Chicago Center
Sun 03:52:09 PM 41.8686 -87.1450 86° East 507 583 37,000  Level Chicago Center
Sun 03:53:11 PM 41.8783 -86.9561 86° East 508 585 37,000  Level Chicago Center
Sun 03:54:13 PM 41.8892 -86.7303 86° East 509 586 37,000  Level Chicago Center
Sun 03:55:15 PM 41.8972 -86.5372 87° East 516 594 37,000  Level Chicago Center
Sun 03:56:17 PM 41.9058 -86.3486 86° East 511 588 37,000  Level Chicago Center
Sun 03:57:19 PM 41.9144 -86.1603 86° East 506 582 37,000  Level Chicago Center
Sun 03:58:21 PM 41.9217 -85.9728 87° East 503 579 37,000  Level Chicago Center
Sun 03:59:23 PM 41.9292 -85.7844 87° East 503 579 37,000  Level Chicago Center
Sun 04:00:25 PM 41.9367 -85.5939 87° East 507 583 37,000  Level Chicago Center
Sun 04:01:27 PM 41.9447 -85.4047 87° East 502 578 37,000  Level Chicago Center
Sun 04:02:34 PM 41.9539 -85.1628 87° East 497 572 37,000  Level Cleveland Center
Sun 04:03:34 PM 41.9511 -84.9728 91° East 497 572 37,000  Level Cleveland Center
Sun 04:04:34 PM 41.9517 -84.7856 90° East 497 572 37,000  Level Cleveland Center
Sun 04:05:34 PM 41.9503 -84.5928 90° East 497 572 37,000  Level Cleveland Center
Sun 04:06:34 PM 41.9464 -84.4025 92° East 502 578 37,000  Level Cleveland Center
Sun 04:07:34 PM 41.9436 -84.2322 91° East 502 578 37,000  Level Cleveland Center
Sun 04:08:34 PM 41.9392 -84.0392 92° East 502 578 37,000  Level Cleveland Center
Sun 04:09:34 PM 41.9386 -83.8467 90° East 507 583 37,000  Level Cleveland Center
Sun 04:10:34 PM 41.9339 -83.6369 92° East 507 583 37,000  Level Cleveland Center
Sun 04:11:34 PM 41.9325 -83.4442 90° East 521 600 37,000  Level Cleveland Center
Sun 04:12:34 PM 41.9331 -83.2517 90° East 516 594 37,000  Level Cleveland Center
Sun 04:13:34 PM 41.9292 -83.0561 91° East 521 600 37,000  Level Cleveland Center
Sun 04:14:34 PM 41.9289 -82.8661 90° East 515 593 37,000  Level Cleveland Center
Sun 04:15:34 PM 41.9264 -82.6681 91° East 515 593 37,000  Level Cleveland Center
Sun 04:16:34 PM 41.9256 -82.4753 90° East 515 593 37,000  Level Cleveland Center
Sun 04:17:34 PM 41.9225 -82.2800 91° East 520 598 37,000  Level Cleveland Center
Sun 04:18:34 PM 41.9228 -82.1097 90° East 511 588 37,000  Level Cleveland Center
Sun 04:19:34 PM 41.9189 -81.9031 91° East 506 582 37,000  Level Cleveland Center
Sun 04:20:34 PM 41.9064 -81.7186 95° East 506 582 37,000  Level Cleveland Center
Sun 04:21:34 PM 41.8894 -81.5342 97° East 498 573 37,000  Level Cleveland Center
Sun 04:22:34 PM 41.8739 -81.3500 96° East 504 580 37,000  Level Cleveland Center
Sun 04:23:34 PM 41.8542 -81.1603 98° East 504 580 37,000  Level Cleveland Center
Sun 04:24:34 PM 41.8383 -80.9761 97° East 498 573 37,000  Level Cleveland Center
Sun 04:25:34 PM 41.8222 -80.8089 97° East 498 573 37,000  Level Cleveland Center
Sun 04:26:34 PM 41.8036 -80.6222 98° East 503 579 37,000  Level Cleveland Center
Sun 04:27:34 PM 41.7869 -80.4411 97° East 498 573 37,000  Level Cleveland Center
Sun 04:28:34 PM 41.7678 -80.2603 98° East 498 573 37,000  Level Cleveland Center
Sun 04:29:34 PM 41.7483 -80.0767 98° East 498 573 37,000  Level Cleveland Center
Sun 04:30:34 PM 41.7308 -79.8931 97° East 498 573 37,000  Level Cleveland Center
Sun 04:31:34 PM 41.7106 -79.6986 98° East 493 567 37,000  Level Cleveland Center
Sun 04:32:34 PM 41.6925 -79.5347 98° East 493 567 37,000  Level Cleveland Center
Sun 04:33:34 PM 41.6742 -79.3544 98° East 493 567 37,000  Level Cleveland Center
Sun 04:34:34 PM 41.6531 -79.1547 98° East 493 567 37,000  Level Cleveland Center
Sun 04:35:34 PM 41.6322 -78.9914 100° East 493 567 37,000  Level Cleveland Center
Sun 04:36:34 PM 41.6106 -78.8086 99° East 493 567 37,000 -50 Level Cleveland Center
Sun 04:37:34 PM 41.5931 -78.6286 97° East 493 567 36,900 -500 Descending Cleveland Center
Sun 04:38:34 PM 41.5711 -78.4461 99° East 493 567 36,000 -1,097 Descending Cleveland Center
Sun 04:40:29 PM 41.5267 -78.0950 99° East 498 573 33,700 -1,227 Descending New York Center
Sun 04:41:30 PM 41.5067 -77.9100 98° East 503 579 32,400 -1,388 Descending New York Center
Sun 04:42:30 PM 41.4783 -77.7242 101° East 509 586 30,900 -1,537 Descending New York Center
Sun 04:43:31 PM 41.4497 -77.5331 101° East 515 593 29,300 -1,438 Descending New York Center
Sun 04:44:31 PM 41.4178 -77.3194 101° East 522 601 28,000 -650 Descending New York Center
Sun 04:45:31 PM 41.3903 -77.1369 101° East 515 593 28,000  Level New York Center
Sun 04:46:29 PM 41.3647 -76.9492 100° East 515 593 28,000 -508 Level New York Center
Sun 04:47:29 PM 41.3325 -76.7667 103° East 515 593 27,000 -1,400 Descending New York Center
Sun 04:48:29 PM 41.2908 -76.5972 108° East 505 581 25,200 -2,000 Descending New York Center
Sun 04:49:29 PM 41.2519 -76.4558 110° East 470 541 23,000 -2,231 Descending New York Center
Sun 04:50:30 PM 41.2111 -76.3064 110° East 453 521 20,700 -2,331 Descending New York Center
Sun 04:51:30 PM 41.1703 -76.1514 109° East 433 498 18,300 -2,479 Descending New York Center
Sun 04:52:31 PM 41.1272 -75.9964 110° East 416 479 15,700 -2,164 Descending New York Center
Sun 04:53:32 PM 41.0897 -75.8558 109° East 407 468 13,900 -1,210 Descending New York Center
Sun 04:54:30 PM 41.0517 -75.7208 110° East 395 455 13,300 -454 Descending New York Center
Sun 04:55:31 PM 41.0194 -75.5947 109° East 395 455 13,000 -198 Descending New York Center
Sun 04:56:31 PM 40.9792 -75.4572 111° Southeast 395 455 12,900 -1,017 Descending New York Center
Sun 04:57:29 PM 40.9406 -75.3256 111° Southeast 395 455 11,000 -1,525 Descending New York Center
Sun 04:58:29 PM 40.9039 -75.1886 109° East 370 426 9,900 -1,190 Descending New York Center
Sun 04:59:30 PM 40.8725 -75.0794 111° Southeast 330 380 8,600 -1,289 Descending New York Center
Sun 05:00:30 PM 40.8428 -74.9789 111° Southeast 304 350 7,300 -1,300 Descending New York Center
Sun 05:01:30 PM 40.8153 -74.8731 109° East 296 341 6,000 -645 Descending New York Center
Sun 05:02:31 PM 40.8331 -74.7833 75° East 276 318 6,000  Level New York Center
Sun 05:03:29 PM 40.8597 -74.6725 72° East 283 326 6,000 -151 Level New York Center
Sun 05:04:30 PM 40.8794 -74.5803 74° East 283 326 5,700 -496 Descending New York Center
Sun 05:05:30 PM 40.8914 -74.4658 82° East 283 326 5,000 -353 Descending New York Center
Sun 05:06:29 PM 40.9000 -74.3667 83° East 290 334 5,000 -303 Level New York TRACON
Sun 05:07:29 PM 40.9167 -74.2500 79° East 291 335 4,400 -500 Descending New York TRACON
Sun 05:08:29 PM 40.8833 -74.1500 114° Southeast 278 320 4,000 -250 Descending New York TRACON
Sun 05:09:29 PM 40.8500 -74.0833 123° Southeast 234 269 3,900 -600 Descending New York TRACON
Sun 05:10:29 PM 40.8000 -74.0833 180° South 192 221 2,800 -1,100 Descending New York TRACON

Login

Don't have an account? Register now (free) for customized features, flight alerts, and more!